sensor_id;sensor_type;location;lat;lon;timestamp;temperature;humidity
59855;DHT22;45732;52.850;6.896;2023-01-28T00:00:06;3.70;99.90
59855;DHT22;45732;52.850;6.896;2023-01-28T00:02:36;3.70;99.90
59855;DHT22;45732;52.850;6.896;2023-01-28T00:05:02;3.60;99.90
59855;DHT22;45732;52.850;6.896;2023-01-28T00:07:27;3.60;99.90
59855;DHT22;45732;52.850;6.896;2023-01-28T00:09:53;3.60;99.90
59855;DHT22;45732;52.850;6.896;2023-01-28T00:12:19;3.60;99.90
59855;DHT22;45732;52.850;6.896;2023-01-28T00:14:45;3.60;99.90
59855;DHT22;45732;52.850;6.896;2023-01-28T00:17:12;3.60;99.90
59855;DHT22;45732;52.850;6.896;2023-01-28T00:19:39;3.60;99.90
59855;DHT22;45732;52.850;6.896;2023-01-28T00:22:05;3.60;99.90
59855;DHT22;45732;52.850;6.896;2023-01-28T00:24:31;3.60;99.90
59855;DHT22;45732;52.850;6.896;2023-01-28T00:26:57;3.60;99.90
59855;DHT22;45732;52.850;6.896;2023-01-28T00:29:22;3.50;99.90
59855;DHT22;45732;52.850;6.896;2023-01-28T00:31:48;3.50;99.90
59855;DHT22;45732;52.850;6.896;2023-01-28T00:34:14;3.60;99.90
59855;DHT22;45732;52.850;6.896;2023-01-28T00:36:39;3.60;99.90
59855;DHT22;45732;52.850;6.896;2023-01-28T00:39:09;3.60;99.90
59855;DHT22;45732;52.850;6.896;2023-01-28T00:41:36;3.50;99.90
59855;DHT22;45732;52.850;6.896;2023-01-28T00:44:02;3.50;99.90
59855;DHT22;45732;52.850;6.896;2023-01-28T00:46:27;3.50;99.90
59855;DHT22;45732;52.850;6.896;2023-01-28T00:48:53;3.60;99.90
59855;DHT22;45732;52.850;6.896;2023-01-28T00:51:20;3.50;99.90
59855;DHT22;45732;52.850;6.896;2023-01-28T00:53:46;3.50;99.90
59855;DHT22;45732;52.850;6.896;2023-01-28T00:56:13;3.50;99.90
59855;DHT22;45732;52.850;6.896;2023-01-28T00:58:39;3.40;99.90
59855;DHT22;45732;52.850;6.896;2023-01-28T01:01:12;3.50;99.90
59855;DHT22;45732;52.850;6.896;2023-01-28T01:03:38;3.50;99.90
59855;DHT22;45732;52.850;6.896;2023-01-28T01:06:05;3.40;99.90
59855;DHT22;45732;52.850;6.896;2023-01-28T01:08:30;3.40;99.90
59855;DHT22;45732;52.850;6.896;2023-01-28T01:11:09;3.40;99.90
59855;DHT22;45732;52.850;6.896;2023-01-28T01:13:35;3.40;99.90
59855;DHT22;45732;52.850;6.896;2023-01-28T01:16:07;3.40;99.90
59855;DHT22;45732;52.850;6.896;2023-01-28T01:18:34;3.40;99.90
59855;DHT22;45732;52.850;6.896;2023-01-28T01:21:00;3.40;99.90
59855;DHT22;45732;52.850;6.896;2023-01-28T01:23:27;3.40;99.90
59855;DHT22;45732;52.850;6.896;2023-01-28T01:25:53;3.40;99.90
59855;DHT22;45732;52.850;6.896;2023-01-28T01:28:20;3.50;99.90
59855;DHT22;45732;52.850;6.896;2023-01-28T01:30:47;3.40;99.90
59855;DHT22;45732;52.850;6.896;2023-01-28T01:33:13;3.40;99.90
59855;DHT22;45732;52.850;6.896;2023-01-28T01:35:39;3.40;99.90
59855;DHT22;45732;52.850;6.896;2023-01-28T01:38:05;3.40;99.90
59855;DHT22;45732;52.850;6.896;2023-01-28T01:40:31;3.40;99.90
59855;DHT22;45732;52.850;6.896;2023-01-28T01:42:56;3.40;99.90
59855;DHT22;45732;52.850;6.896;2023-01-28T01:45:22;3.40;99.90
59855;DHT22;45732;52.850;6.896;2023-01-28T01:48:02;3.40;99.90
59855;DHT22;45732;52.850;6.896;2023-01-28T01:50:36;3.40;99.90
59855;DHT22;45732;52.850;6.896;2023-01-28T01:53:09;3.30;99.90
59855;DHT22;45732;52.850;6.896;2023-01-28T01:55:38;3.40;99.90
59855;DHT22;45732;52.850;6.896;2023-01-28T01:58:11;3.40;99.90
59855;DHT22;45732;52.850;6.896;2023-01-28T02:00:38;3.40;99.90
59855;DHT22;45732;52.850;6.896;2023-01-28T02:03:05;3.40;99.90
59855;DHT22;45732;52.850;6.896;2023-01-28T02:05:31;3.40;99.90
59855;DHT22;45732;52.850;6.896;2023-01-28T02:07:57;3.30;99.90
59855;DHT22;45732;52.850;6.896;2023-01-28T02:10:50;3.30;99.90
59855;DHT22;45732;52.850;6.896;2023-01-28T02:13:16;3.30;99.90
59855;DHT22;45732;52.850;6.896;2023-01-28T02:15:43;3.30;99.90
59855;DHT22;45732;52.850;6.896;2023-01-28T02:18:10;3.30;99.90
59855;DHT22;45732;52.850;6.896;2023-01-28T02:32:03;3.30;99.90
59855;DHT22;45732;52.850;6.896;2023-01-28T02:39:47;3.30;99.90
59855;DHT22;45732;52.850;6.896;2023-01-28T02:42:27;3.30;99.90
59855;DHT22;45732;52.850;6.896;2023-01-28T02:44:54;3.20;99.90
59855;DHT22;45732;52.850;6.896;2023-01-28T02:47:20;3.10;99.90
59855;DHT22;45732;52.850;6.896;2023-01-28T02:50:15;3.20;99.90
59855;DHT22;45732;52.850;6.896;2023-01-28T03:03:59;3.10;99.90
59855;DHT22;45732;52.850;6.896;2023-01-28T03:06:31;3.20;99.90
59855;DHT22;45732;52.850;6.896;2023-01-28T03:09:02;3.20;99.90
59855;DHT22;45732;52.850;6.896;2023-01-28T03:12:17;3.20;99.90
59855;DHT22;45732;52.850;6.896;2023-01-28T03:15:12;3.20;99.90
59855;DHT22;45732;52.850;6.896;2023-01-28T03:18:19;3.20;99.90
59855;DHT22;45732;52.850;6.896;2023-01-28T03:21:14;3.20;99.90
59855;DHT22;45732;52.850;6.896;2023-01-28T03:24:08;3.20;99.90
59855;DHT22;45732;52.850;6.896;2023-01-28T03:30:14;3.20;99.90
59855;DHT22;45732;52.850;6.896;2023-01-28T03:33:00;3.20;99.90
59855;DHT22;45732;52.850;6.896;2023-01-28T03:35:46;3.20;99.90
59855;DHT22;45732;52.850;6.896;2023-01-28T03:38:32;3.20;99.90
59855;DHT22;45732;52.850;6.896;2023-01-28T03:41:08;3.20;99.90
59855;DHT22;45732;52.850;6.896;2023-01-28T03:43:34;3.20;99.90
59855;DHT22;45732;52.850;6.896;2023-01-28T03:46:02;3.20;99.90
59855;DHT22;45732;52.850;6.896;2023-01-28T03:48:28;3.10;99.90
59855;DHT22;45732;52.850;6.896;2023-01-28T03:50:55;3.10;99.90
59855;DHT22;45732;52.850;6.896;2023-01-28T03:53:21;3.10;99.90
59855;DHT22;45732;52.850;6.896;2023-01-28T03:55:49;3.20;99.90
59855;DHT22;45732;52.850;6.896;2023-01-28T03:58:15;3.20;99.90
59855;DHT22;45732;52.850;6.896;2023-01-28T04:00:41;3.20;99.90
59855;DHT22;45732;52.850;6.896;2023-01-28T04:03:08;3.20;99.90
59855;DHT22;45732;52.850;6.896;2023-01-28T04:06:02;3.20;99.90
59855;DHT22;45732;52.850;6.896;2023-01-28T04:08:26;3.10;99.90
59855;DHT22;45732;52.850;6.896;2023-01-28T04:10:52;3.00;99.90
59855;DHT22;45732;52.850;6.896;2023-01-28T04:13:18;3.00;99.90
59855;DHT22;45732;52.850;6.896;2023-01-28T04:15:44;3.00;99.90
59855;DHT22;45732;52.850;6.896;2023-01-28T04:18:11;3.10;99.90
59855;DHT22;45732;52.850;6.896;2023-01-28T04:20:37;3.10;99.90
59855;DHT22;45732;52.850;6.896;2023-01-28T04:23:03;3.00;99.90
59855;DHT22;45732;52.850;6.896;2023-01-28T04:25:30;3.00;99.90
59855;DHT22;45732;52.850;6.896;2023-01-28T04:27:56;3.10;99.90
59855;DHT22;45732;52.850;6.896;2023-01-28T04:30:22;3.00;99.90
59855;DHT22;45732;52.850;6.896;2023-01-28T04:32:48;3.10;99.90
59855;DHT22;45732;52.850;6.896;2023-01-28T04:35:17;3.10;99.90
59855;DHT22;45732;52.850;6.896;2023-01-28T04:37:44;3.10;99.90
59855;DHT22;45732;52.850;6.896;2023-01-28T04:40:11;3.10;99.90
59855;DHT22;45732;52.850;6.896;2023-01-28T04:42:37;3.10;99.90
59855;DHT22;45732;52.850;6.896;2023-01-28T04:45:03;3.20;99.90
59855;DHT22;45732;52.850;6.896;2023-01-28T04:47:29;3.20;99.90
59855;DHT22;45732;52.850;6.896;2023-01-28T04:49:55;3.20;99.90
59855;DHT22;45732;52.850;6.896;2023-01-28T04:52:21;3.10;99.90
59855;DHT22;45732;52.850;6.896;2023-01-28T04:54:46;3.10;99.90
59855;DHT22;45732;52.850;6.896;2023-01-28T04:57:12;3.10;99.90
59855;DHT22;45732;52.850;6.896;2023-01-28T04:59:38;3.20;99.90
59855;DHT22;45732;52.850;6.896;2023-01-28T05:02:03;3.10;99.90
59855;DHT22;45732;52.850;6.896;2023-01-28T05:04:29;3.20;99.90
59855;DHT22;45732;52.850;6.896;2023-01-28T05:06:55;3.20;99.90
59855;DHT22;45732;52.850;6.896;2023-01-28T05:09:20;3.10;99.90
59855;DHT22;45732;52.850;6.896;2023-01-28T05:11:46;3.10;99.90
59855;DHT22;45732;52.850;6.896;2023-01-28T05:14:12;3.10;99.90
59855;DHT22;45732;52.850;6.896;2023-01-28T05:16:37;3.10;99.90
59855;DHT22;45732;52.850;6.896;2023-01-28T05:19:03;3.10;99.90
59855;DHT22;45732;52.850;6.896;2023-01-28T05:21:29;3.10;99.90
59855;DHT22;45732;52.850;6.896;2023-01-28T05:23:55;3.10;99.90
59855;DHT22;45732;52.850;6.896;2023-01-28T05:26:20;3.10;99.90
59855;DHT22;45732;52.850;6.896;2023-01-28T05:28:46;3.10;99.90
59855;DHT22;45732;52.850;6.896;2023-01-28T05:31:11;3.00;99.90
59855;DHT22;45732;52.850;6.896;2023-01-28T05:33:37;3.00;99.90
59855;DHT22;45732;52.850;6.896;2023-01-28T05:36:03;3.00;99.90
59855;DHT22;45732;52.850;6.896;2023-01-28T05:38:29;2.90;99.90
59855;DHT22;45732;52.850;6.896;2023-01-28T05:40:55;3.00;99.90
59855;DHT22;45732;52.850;6.896;2023-01-28T05:43:20;2.90;99.90
59855;DHT22;45732;52.850;6.896;2023-01-28T05:45:46;3.00;99.90
59855;DHT22;45732;52.850;6.896;2023-01-28T05:48:13;3.00;99.90
59855;DHT22;45732;52.850;6.896;2023-01-28T05:50:39;3.00;99.90
59855;DHT22;45732;52.850;6.896;2023-01-28T05:53:08;3.00;99.90
59855;DHT22;45732;52.850;6.896;2023-01-28T05:55:34;3.00;99.90
59855;DHT22;45732;52.850;6.896;2023-01-28T05:58:00;3.00;99.90
59855;DHT22;45732;52.850;6.896;2023-01-28T06:00:26;2.90;99.90
59855;DHT22;45732;52.850;6.896;2023-01-28T06:02:52;2.90;99.90
59855;DHT22;45732;52.850;6.896;2023-01-28T06:05:18;2.90;99.90
59855;DHT22;45732;52.850;6.896;2023-01-28T06:07:44;2.90;99.90
59855;DHT22;45732;52.850;6.896;2023-01-28T06:10:10;2.90;99.90
59855;DHT22;45732;52.850;6.896;2023-01-28T06:12:36;2.90;99.90
59855;DHT22;45732;52.850;6.896;2023-01-28T06:15:02;2.90;99.90
59855;DHT22;45732;52.850;6.896;2023-01-28T06:17:28;2.90;99.90
59855;DHT22;45732;52.850;6.896;2023-01-28T06:19:54;2.90;99.90
59855;DHT22;45732;52.850;6.896;2023-01-28T06:22:19;2.90;99.90
59855;DHT22;45732;52.850;6.896;2023-01-28T06:24:45;2.90;99.90
59855;DHT22;45732;52.850;6.896;2023-01-28T06:27:10;2.90;99.90
59855;DHT22;45732;52.850;6.896;2023-01-28T06:29:36;2.90;99.90
59855;DHT22;45732;52.850;6.896;2023-01-28T06:32:02;3.00;99.90
59855;DHT22;45732;52.850;6.896;2023-01-28T06:34:28;3.00;99.90
59855;DHT22;45732;52.850;6.896;2023-01-28T06:36:53;3.00;99.90
59855;DHT22;45732;52.850;6.896;2023-01-28T06:39:20;3.10;99.90
59855;DHT22;45732;52.850;6.896;2023-01-28T06:41:47;3.00;99.90
59855;DHT22;45732;52.850;6.896;2023-01-28T06:44:13;2.90;99.90
59855;DHT22;45732;52.850;6.896;2023-01-28T06:46:38;2.90;99.90
59855;DHT22;45732;52.850;6.896;2023-01-28T06:49:04;2.90;99.90
59855;DHT22;45732;52.850;6.896;2023-01-28T06:51:30;2.90;99.90
59855;DHT22;45732;52.850;6.896;2023-01-28T06:53:55;2.90;99.90
59855;DHT22;45732;52.850;6.896;2023-01-28T06:56:21;2.90;99.90
59855;DHT22;45732;52.850;6.896;2023-01-28T06:58:47;2.90;99.90
59855;DHT22;45732;52.850;6.896;2023-01-28T07:01:13;2.90;99.90
59855;DHT22;45732;52.850;6.896;2023-01-28T07:03:38;2.90;99.90
59855;DHT22;45732;52.850;6.896;2023-01-28T07:06:04;2.80;99.90
59855;DHT22;45732;52.850;6.896;2023-01-28T07:08:30;2.80;99.90
59855;DHT22;45732;52.850;6.896;2023-01-28T07:10:56;2.90;99.90
59855;DHT22;45732;52.850;6.896;2023-01-28T07:13:21;2.90;99.90
59855;DHT22;45732;52.850;6.896;2023-01-28T07:15:47;2.90;99.90
59855;DHT22;45732;52.850;6.896;2023-01-28T07:18:14;2.90;99.90
59855;DHT22;45732;52.850;6.896;2023-01-28T07:20:39;2.90;99.90
59855;DHT22;45732;52.850;6.896;2023-01-28T07:23:05;2.80;99.90
59855;DHT22;45732;52.850;6.896;2023-01-28T07:25:31;2.90;99.90
59855;DHT22;45732;52.850;6.896;2023-01-28T07:27:56;2.90;99.90
59855;DHT22;45732;52.850;6.896;2023-01-28T07:30:22;3.00;99.90
59855;DHT22;45732;52.850;6.896;2023-01-28T07:32:53;2.90;99.90
59855;DHT22;45732;52.850;6.896;2023-01-28T07:35:19;2.90;99.90
59855;DHT22;45732;52.850;6.896;2023-01-28T07:37:53;2.90;99.90
59855;DHT22;45732;52.850;6.896;2023-01-28T07:40:20;2.90;99.90
59855;DHT22;45732;52.850;6.896;2023-01-28T07:42:45;2.90;99.90
59855;DHT22;45732;52.850;6.896;2023-01-28T07:45:12;2.90;99.90
59855;DHT22;45732;52.850;6.896;2023-01-28T07:47:38;2.90;99.90
59855;DHT22;45732;52.850;6.896;2023-01-28T07:50:04;2.80;99.90
59855;DHT22;45732;52.850;6.896;2023-01-28T07:52:30;2.90;99.90
59855;DHT22;45732;52.850;6.896;2023-01-28T07:54:56;2.90;99.90
59855;DHT22;45732;52.850;6.896;2023-01-28T07:57:21;2.90;99.90
59855;DHT22;45732;52.850;6.896;2023-01-28T07:59:50;2.90;99.90
59855;DHT22;45732;52.850;6.896;2023-01-28T08:02:16;2.90;99.90
59855;DHT22;45732;52.850;6.896;2023-01-28T08:04:42;2.90;99.90
59855;DHT22;45732;52.850;6.896;2023-01-28T08:07:08;2.90;99.90
59855;DHT22;45732;52.850;6.896;2023-01-28T08:09:33;3.00;99.90
59855;DHT22;45732;52.850;6.896;2023-01-28T08:12:00;2.90;99.90
59855;DHT22;45732;52.850;6.896;2023-01-28T08:14:27;2.90;99.90
59855;DHT22;45732;52.850;6.896;2023-01-28T08:16:53;2.90;99.90
59855;DHT22;45732;52.850;6.896;2023-01-28T08:19:18;2.90;99.90
59855;DHT22;45732;52.850;6.896;2023-01-28T08:21:49;2.80;99.90
59855;DHT22;45732;52.850;6.896;2023-01-28T08:24:15;2.70;99.90
59855;DHT22;45732;52.850;6.896;2023-01-28T08:26:41;2.70;99.90
59855;DHT22;45732;52.850;6.896;2023-01-28T08:29:06;2.50;99.90
59855;DHT22;45732;52.850;6.896;2023-01-28T08:31:32;2.60;99.90
59855;DHT22;45732;52.850;6.896;2023-01-28T08:33:58;2.60;99.90
59855;DHT22;45732;52.850;6.896;2023-01-28T08:36:23;2.70;99.90
59855;DHT22;45732;52.850;6.896;2023-01-28T08:38:53;2.80;99.90
59855;DHT22;45732;52.850;6.896;2023-01-28T08:41:21;2.80;99.90
59855;DHT22;45732;52.850;6.896;2023-01-28T08:43:48;2.80;99.90
59855;DHT22;45732;52.850;6.896;2023-01-28T08:46:14;2.80;99.90
59855;DHT22;45732;52.850;6.896;2023-01-28T08:48:40;2.80;99.90
59855;DHT22;45732;52.850;6.896;2023-01-28T08:51:07;2.80;99.90
59855;DHT22;45732;52.850;6.896;2023-01-28T08:53:33;2.70;99.90
59855;DHT22;45732;52.850;6.896;2023-01-28T08:55:59;2.80;99.90
59855;DHT22;45732;52.850;6.896;2023-01-28T08:58:24;2.80;99.90
59855;DHT22;45732;52.850;6.896;2023-01-28T09:00:50;2.80;99.90
59855;DHT22;45732;52.850;6.896;2023-01-28T09:03:16;2.80;99.90
59855;DHT22;45732;52.850;6.896;2023-01-28T09:05:43;2.90;99.90
59855;DHT22;45732;52.850;6.896;2023-01-28T09:08:12;2.90;99.90
59855;DHT22;45732;52.850;6.896;2023-01-28T09:10:38;2.90;99.90
59855;DHT22;45732;52.850;6.896;2023-01-28T09:13:07;3.00;99.90
59855;DHT22;45732;52.850;6.896;2023-01-28T09:15:33;3.10;99.90
59855;DHT22;45732;52.850;6.896;2023-01-28T09:17:59;3.10;99.90
59855;DHT22;45732;52.850;6.896;2023-01-28T09:20:25;3.10;99.90
59855;DHT22;45732;52.850;6.896;2023-01-28T09:22:51;3.20;99.90
59855;DHT22;45732;52.850;6.896;2023-01-28T09:25:17;3.20;99.90
59855;DHT22;45732;52.850;6.896;2023-01-28T09:27:42;3.10;99.90
59855;DHT22;45732;52.850;6.896;2023-01-28T09:30:08;3.20;99.90
59855;DHT22;45732;52.850;6.896;2023-01-28T09:32:35;3.20;99.90
59855;DHT22;45732;52.850;6.896;2023-01-28T09:35:01;3.30;99.90
59855;DHT22;45732;52.850;6.896;2023-01-28T09:37:27;3.30;99.90
59855;DHT22;45732;52.850;6.896;2023-01-28T09:39:52;3.30;99.90
59855;DHT22;45732;52.850;6.896;2023-01-28T09:45:15;3.40;99.90
59855;DHT22;45732;52.850;6.896;2023-01-28T09:47:53;3.50;99.90
59855;DHT22;45732;52.850;6.896;2023-01-28T09:53:21;3.40;99.90
59855;DHT22;45732;52.850;6.896;2023-01-28T09:56:00;3.50;99.90
59855;DHT22;45732;52.850;6.896;2023-01-28T09:58:26;3.40;99.90
59855;DHT22;45732;52.850;6.896;2023-01-28T10:00:59;3.40;99.90
59855;DHT22;45732;52.850;6.896;2023-01-28T10:06:03;3.30;99.90
59855;DHT22;45732;52.850;6.896;2023-01-28T10:16:50;3.60;99.90
59855;DHT22;45732;52.850;6.896;2023-01-28T10:19:24;3.60;99.90
59855;DHT22;45732;52.850;6.896;2023-01-28T10:22:02;3.70;99.90
59855;DHT22;45732;52.850;6.896;2023-01-28T10:26:55;3.90;99.90
59855;DHT22;45732;52.850;6.896;2023-01-28T10:29:26;4.00;99.90
59855;DHT22;45732;52.850;6.896;2023-01-28T10:31:57;4.00;99.90
59855;DHT22;45732;52.850;6.896;2023-01-28T10:34:23;4.00;99.90
59855;DHT22;45732;52.850;6.896;2023-01-28T10:36:50;4.00;99.90
59855;DHT22;45732;52.850;6.896;2023-01-28T10:39:18;3.90;99.90
59855;DHT22;45732;52.850;6.896;2023-01-28T10:41:44;3.90;99.90
59855;DHT22;45732;52.850;6.896;2023-01-28T10:44:35;3.90;99.90
59855;DHT22;45732;52.850;6.896;2023-01-28T10:47:13;3.90;99.90
59855;DHT22;45732;52.850;6.896;2023-01-28T10:49:44;3.90;99.90
59855;DHT22;45732;52.850;6.896;2023-01-28T10:52:15;3.90;99.90
59855;DHT22;45732;52.850;6.896;2023-01-28T10:54:41;3.90;99.90
59855;DHT22;45732;52.850;6.896;2023-01-28T10:57:11;3.90;99.90
59855;DHT22;45732;52.850;6.896;2023-01-28T10:59:38;3.90;99.90
59855;DHT22;45732;52.850;6.896;2023-01-28T11:02:32;3.90;99.90
59855;DHT22;45732;52.850;6.896;2023-01-28T11:07:38;4.10;99.90
59855;DHT22;45732;52.850;6.896;2023-01-28T11:10:27;4.10;99.90
59855;DHT22;45732;52.850;6.896;2023-01-28T11:12:55;4.20;99.90
59855;DHT22;45732;52.850;6.896;2023-01-28T11:15:21;4.20;99.90
59855;DHT22;45732;52.850;6.896;2023-01-28T11:17:49;4.30;99.90
59855;DHT22;45732;52.850;6.896;2023-01-28T11:20:20;4.30;99.90
59855;DHT22;45732;52.850;6.896;2023-01-28T11:22:47;4.30;99.90
59855;DHT22;45732;52.850;6.896;2023-01-28T11:25:32;4.30;99.90
59855;DHT22;45732;52.850;6.896;2023-01-28T11:28:01;4.30;99.90
59855;DHT22;45732;52.850;6.896;2023-01-28T11:30:33;4.20;99.90
59855;DHT22;45732;52.850;6.896;2023-01-28T11:35:38;4.20;99.90
59855;DHT22;45732;52.850;6.896;2023-01-28T11:38:17;4.30;99.90
59855;DHT22;45732;52.850;6.896;2023-01-28T11:40:50;4.40;99.90
59855;DHT22;45732;52.850;6.896;2023-01-28T11:43:18;4.40;99.90
59855;DHT22;45732;52.850;6.896;2023-01-28T11:48:51;4.60;99.90
59855;DHT22;45732;52.850;6.896;2023-01-28T11:51:25;4.70;99.90
59855;DHT22;45732;52.850;6.896;2023-01-28T11:57:06;4.90;99.90
59855;DHT22;45732;52.850;6.896;2023-01-28T11:59:45;5.00;99.90
59855;DHT22;45732;52.850;6.896;2023-01-28T12:05:07;5.10;99.90
59855;DHT22;45732;52.850;6.896;2023-01-28T12:08:00;5.10;99.90
59855;DHT22;45732;52.850;6.896;2023-01-28T12:17:05;5.10;99.90
59855;DHT22;45732;52.850;6.896;2023-01-28T12:19:13;5.10;99.90
59855;DHT22;45732;52.850;6.896;2023-01-28T12:30:03;5.10;99.90
59855;DHT22;45732;52.850;6.896;2023-01-28T12:35:22;5.00;99.90
59855;DHT22;45732;52.850;6.896;2023-01-28T12:38:06;5.00;99.90
59855;DHT22;45732;52.850;6.896;2023-01-28T12:46:45;5.00;99.90
59855;DHT22;45732;52.850;6.896;2023-01-28T12:52:24;5.00;99.90
59855;DHT22;45732;52.850;6.896;2023-01-28T12:55:11;4.90;99.90
59855;DHT22;45732;52.850;6.896;2023-01-28T12:57:37;5.00;99.90
59855;DHT22;45732;52.850;6.896;2023-01-28T13:00:32;4.90;99.90
59855;DHT22;45732;52.850;6.896;2023-01-28T13:05:53;4.80;99.90
59855;DHT22;45732;52.850;6.896;2023-01-28T13:08:23;4.80;99.90
59855;DHT22;45732;52.850;6.896;2023-01-28T13:10:50;4.80;99.90
59855;DHT22;45732;52.850;6.896;2023-01-28T13:15:58;4.80;99.90
59855;DHT22;45732;52.850;6.896;2023-01-28T13:21:50;4.80;99.90
59855;DHT22;45732;52.850;6.896;2023-01-28T13:24:04;4.90;99.90
59855;DHT22;45732;52.850;6.896;2023-01-28T13:26:55;4.90;99.90
59855;DHT22;45732;52.850;6.896;2023-01-28T13:31:54;4.90;99.90
59855;DHT22;45732;52.850;6.896;2023-01-28T13:36:55;5.00;99.90
59855;DHT22;45732;52.850;6.896;2023-01-28T13:39:22;5.00;99.90
59855;DHT22;45732;52.850;6.896;2023-01-28T13:44:29;5.10;99.90
59855;DHT22;45732;52.850;6.896;2023-01-28T13:49:41;5.10;99.90
59855;DHT22;45732;52.850;6.896;2023-01-28T13:54:50;5.10;99.90
59855;DHT22;45732;52.850;6.896;2023-01-28T14:19:31;5.20;99.90
59855;DHT22;45732;52.850;6.896;2023-01-28T14:21:58;5.20;99.90
59855;DHT22;45732;52.850;6.896;2023-01-28T14:24:24;5.20;99.90
59855;DHT22;45732;52.850;6.896;2023-01-28T14:30:14;5.30;99.90
59855;DHT22;45732;52.850;6.896;2023-01-28T14:32:33;5.40;99.90
59855;DHT22;45732;52.850;6.896;2023-01-28T14:35:08;5.40;99.90
59855;DHT22;45732;52.850;6.896;2023-01-28T14:37:34;5.50;99.90
59855;DHT22;45732;52.850;6.896;2023-01-28T14:40:05;5.60;99.90
59855;DHT22;45732;52.850;6.896;2023-01-28T14:42:39;5.50;99.90
59855;DHT22;45732;52.850;6.896;2023-01-28T14:48:24;5.50;99.90
59855;DHT22;45732;52.850;6.896;2023-01-28T14:51:27;5.50;99.90
59855;DHT22;45732;52.850;6.896;2023-01-28T14:54:04;5.40;99.90
59855;DHT22;45732;52.850;6.896;2023-01-28T14:56:52;5.40;99.90
59855;DHT22;45732;52.850;6.896;2023-01-28T14:59:27;5.30;99.90
59855;DHT22;45732;52.850;6.896;2023-01-28T15:01:57;5.30;99.90
59855;DHT22;45732;52.850;6.896;2023-01-28T15:04:31;5.20;99.90
59855;DHT22;45732;52.850;6.896;2023-01-28T15:07:11;5.30;99.90
59855;DHT22;45732;52.850;6.896;2023-01-28T15:09:40;5.20;99.90
59855;DHT22;45732;52.850;6.896;2023-01-28T15:12:07;5.20;99.90
59855;DHT22;45732;52.850;6.896;2023-01-28T15:14:33;5.10;99.90
59855;DHT22;45732;52.850;6.896;2023-01-28T15:16:59;5.10;99.90
59855;DHT22;45732;52.850;6.896;2023-01-28T15:19:29;5.10;99.90
59855;DHT22;45732;52.850;6.896;2023-01-28T15:22:01;5.10;99.90
59855;DHT22;45732;52.850;6.896;2023-01-28T15:24:27;5.10;99.90
59855;DHT22;45732;52.850;6.896;2023-01-28T15:26:53;5.10;99.90
59855;DHT22;45732;52.850;6.896;2023-01-28T15:29:24;5.00;99.90
59855;DHT22;45732;52.850;6.896;2023-01-28T15:31:50;5.00;99.90
59855;DHT22;45732;52.850;6.896;2023-01-28T15:34:18;5.00;99.90
59855;DHT22;45732;52.850;6.896;2023-01-28T15:36:45;5.00;99.90
59855;DHT22;45732;52.850;6.896;2023-01-28T15:39:20;5.00;99.90
59855;DHT22;45732;52.850;6.896;2023-01-28T15:41:55;5.00;99.90
59855;DHT22;45732;52.850;6.896;2023-01-28T15:45:02;5.00;99.90
59855;DHT22;45732;52.850;6.896;2023-01-28T15:47:23;5.00;99.90
59855;DHT22;45732;52.850;6.896;2023-01-28T15:49:55;5.00;99.90
59855;DHT22;45732;52.850;6.896;2023-01-28T15:52:29;5.00;99.90
59855;DHT22;45732;52.850;6.896;2023-01-28T15:54:57;5.00;99.90
59855;DHT22;45732;52.850;6.896;2023-01-28T15:57:31;4.90;99.90
59855;DHT22;45732;52.850;6.896;2023-01-28T16:03:07;4.90;99.90
59855;DHT22;45732;52.850;6.896;2023-01-28T16:05:34;4.90;99.90
59855;DHT22;45732;52.850;6.896;2023-01-28T16:08:06;4.90;99.90
59855;DHT22;45732;52.850;6.896;2023-01-28T16:10:32;4.90;99.90
59855;DHT22;45732;52.850;6.896;2023-01-28T16:15:35;4.80;99.90
59855;DHT22;45732;52.850;6.896;2023-01-28T16:18:03;4.80;99.90
59855;DHT22;45732;52.850;6.896;2023-01-28T16:20:30;4.80;99.90
59855;DHT22;45732;52.850;6.896;2023-01-28T16:22:58;4.80;99.90
59855;DHT22;45732;52.850;6.896;2023-01-28T16:25:30;4.80;99.90
59855;DHT22;45732;52.850;6.896;2023-01-28T16:27:57;4.80;99.90
59855;DHT22;45732;52.850;6.896;2023-01-28T16:30:24;4.80;99.90
59855;DHT22;45732;52.850;6.896;2023-01-28T16:32:50;4.70;99.90
59855;DHT22;45732;52.850;6.896;2023-01-28T16:35:21;4.70;99.90
59855;DHT22;45732;52.850;6.896;2023-01-28T16:37:48;4.70;99.90
59855;DHT22;45732;52.850;6.896;2023-01-28T16:40:16;4.60;99.90
59855;DHT22;45732;52.850;6.896;2023-01-28T16:42:43;4.60;99.90
59855;DHT22;45732;52.850;6.896;2023-01-28T16:45:21;4.60;99.90
59855;DHT22;45732;52.850;6.896;2023-01-28T16:47:48;4.50;99.90
59855;DHT22;45732;52.850;6.896;2023-01-28T16:50:15;4.50;99.90
59855;DHT22;45732;52.850;6.896;2023-01-28T16:52:42;4.50;99.90
59855;DHT22;45732;52.850;6.896;2023-01-28T16:55:17;4.50;99.90
59855;DHT22;45732;52.850;6.896;2023-01-28T16:57:45;4.50;99.90
59855;DHT22;45732;52.850;6.896;2023-01-28T17:00:22;4.50;99.90
59855;DHT22;45732;52.850;6.896;2023-01-28T17:02:49;4.40;99.90
59855;DHT22;45732;52.850;6.896;2023-01-28T17:05:15;4.50;99.90
59855;DHT22;45732;52.850;6.896;2023-01-28T17:07:41;4.50;99.90
59855;DHT22;45732;52.850;6.896;2023-01-28T17:10:08;4.40;99.90
59855;DHT22;45732;52.850;6.896;2023-01-28T17:12:34;4.40;99.90
59855;DHT22;45732;52.850;6.896;2023-01-28T17:14:59;4.40;99.90
59855;DHT22;45732;52.850;6.896;2023-01-28T17:17:25;4.40;99.90
59855;DHT22;45732;52.850;6.896;2023-01-28T17:19:51;4.40;99.90
59855;DHT22;45732;52.850;6.896;2023-01-28T17:22:16;4.40;99.90
59855;DHT22;45732;52.850;6.896;2023-01-28T17:24:42;4.40;99.90
59855;DHT22;45732;52.850;6.896;2023-01-28T17:27:08;4.40;99.90
59855;DHT22;45732;52.850;6.896;2023-01-28T17:29:34;4.40;99.90
59855;DHT22;45732;52.850;6.896;2023-01-28T17:32:00;4.40;99.90
59855;DHT22;45732;52.850;6.896;2023-01-28T17:34:26;4.40;99.90
59855;DHT22;45732;52.850;6.896;2023-01-28T17:36:52;4.40;99.90
59855;DHT22;45732;52.850;6.896;2023-01-28T17:39:17;4.40;99.90
59855;DHT22;45732;52.850;6.896;2023-01-28T17:41:43;4.50;99.90
59855;DHT22;45732;52.850;6.896;2023-01-28T17:44:11;4.40;99.90
59855;DHT22;45732;52.850;6.896;2023-01-28T17:46:36;4.40;99.90
59855;DHT22;45732;52.850;6.896;2023-01-28T17:49:02;4.40;99.90
59855;DHT22;45732;52.850;6.896;2023-01-28T17:51:28;4.40;99.90
59855;DHT22;45732;52.850;6.896;2023-01-28T17:53:54;4.40;99.90
59855;DHT22;45732;52.850;6.896;2023-01-28T17:56:24;4.40;99.90
59855;DHT22;45732;52.850;6.896;2023-01-28T17:58:52;4.40;99.90
59855;DHT22;45732;52.850;6.896;2023-01-28T18:01:18;4.40;99.90
59855;DHT22;45732;52.850;6.896;2023-01-28T18:03:44;4.30;99.90
59855;DHT22;45732;52.850;6.896;2023-01-28T18:06:10;4.30;99.90
59855;DHT22;45732;52.850;6.896;2023-01-28T18:08:36;4.30;99.90
59855;DHT22;45732;52.850;6.896;2023-01-28T18:11:02;4.40;99.90
59855;DHT22;45732;52.850;6.896;2023-01-28T18:13:31;4.30;99.90
59855;DHT22;45732;52.850;6.896;2023-01-28T18:15:59;4.30;99.90
59855;DHT22;45732;52.850;6.896;2023-01-28T18:18:24;4.30;99.90
59855;DHT22;45732;52.850;6.896;2023-01-28T18:21:02;4.30;99.90
59855;DHT22;45732;52.850;6.896;2023-01-28T18:23:28;4.30;99.90